createdAt,value
2023-03-19T00:01:33.438Z,16.90
2023-03-19T00:04:00.612Z,21.15
2023-03-19T00:06:27.743Z,19.67
2023-03-19T00:08:54.859Z,22.17
2023-03-19T00:11:22.505Z,18.73
2023-03-19T00:13:49.582Z,18.38
2023-03-19T00:16:16.696Z,19.65
2023-03-19T00:18:43.774Z,20.02
2023-03-19T00:21:10.794Z,16.20
2023-03-19T00:23:37.875Z,17.27
2023-03-19T00:26:04.988Z,20.17
2023-03-19T00:28:32.159Z,15.68
2023-03-19T00:30:59.277Z,19.85
2023-03-19T00:33:26.580Z,16.20
2023-03-19T00:35:53.732Z,15.60
2023-03-19T00:38:20.790Z,16.33
2023-03-19T00:40:48.433Z,16.13
2023-03-19T00:43:16.210Z,11.73
2023-03-19T00:45:43.302Z,11.07
2023-03-19T00:48:10.876Z,11.40
2023-03-19T00:50:37.919Z,10.98
2023-03-19T00:53:05.003Z,9.13
2023-03-19T00:55:32.440Z,10.65
2023-03-19T00:57:59.635Z,10.10
2023-03-19T01:00:26.752Z,7.03
2023-03-19T01:02:53.775Z,7.55
2023-03-19T01:05:21.284Z,8.63
2023-03-19T01:07:48.388Z,6.75
2023-03-19T01:10:16.737Z,5.43
2023-03-19T01:12:43.747Z,7.10
2023-03-19T01:15:10.969Z,6.70
2023-03-19T01:17:38.234Z,6.40
2023-03-19T01:20:08.967Z,4.57
2023-03-19T01:22:37.145Z,5.60
2023-03-19T01:25:05.003Z,6.45
2023-03-19T01:27:32.082Z,6.30
2023-03-19T01:29:59.174Z,5.18
2023-03-19T01:32:26.574Z,6.93
2023-03-19T01:34:53.643Z,4.50
2023-03-19T01:37:21.001Z,5.13
2023-03-19T01:39:49.941Z,4.38
2023-03-19T01:42:17.110Z,4.53
2023-03-19T01:44:45.029Z,5.15
2023-03-19T01:47:17.905Z,4.88
2023-03-19T01:49:49.094Z,3.90
2023-03-19T01:52:16.609Z,3.97
2023-03-19T01:54:44.340Z,5.30
2023-03-19T01:57:12.652Z,4.05
2023-03-19T01:59:42.111Z,3.38
2023-03-19T02:02:12.412Z,5.43
2023-03-19T02:04:40.864Z,5.57
2023-03-19T02:07:08.997Z,3.35
2023-03-19T02:09:36.763Z,3.33
2023-03-19T02:12:04.518Z,4.55
2023-03-19T02:14:31.746Z,5.53
2023-03-19T02:16:58.748Z,4.10
2023-03-19T02:19:31.460Z,4.72
2023-03-19T02:21:59.929Z,3.80
2023-03-19T02:24:29.587Z,2.65
2023-03-19T02:26:58.084Z,5.53
2023-03-19T02:29:25.135Z,5.28
2023-03-19T02:31:52.195Z,4.30
2023-03-19T02:34:22.426Z,4.60
2023-03-19T02:36:51.934Z,7.18
2023-03-19T02:39:23.524Z,3.83
2023-03-19T02:41:52.764Z,4.60
2023-03-19T02:44:20.086Z,3.45
2023-03-19T02:46:47.256Z,3.78
2023-03-19T02:49:15.235Z,4.03
2023-03-19T02:51:42.304Z,5.15
2023-03-19T02:54:09.387Z,4.97
2023-03-19T02:56:36.434Z,4.32
2023-03-19T02:59:03.477Z,4.20
2023-03-19T03:01:30.574Z,5.50
2023-03-19T03:03:57.602Z,4.72
2023-03-19T03:06:24.656Z,6.22
2023-03-19T03:08:52.086Z,4.32
2023-03-19T03:11:19.337Z,4.88
2023-03-19T03:13:46.422Z,3.58
2023-03-19T03:16:13.461Z,3.80
2023-03-19T03:18:40.530Z,4.60
2023-03-19T03:21:08.132Z,6.03
2023-03-19T03:23:35.206Z,3.22
2023-03-19T03:26:02.349Z,3.30
2023-03-19T03:28:29.385Z,3.38
2023-03-19T03:31:00.089Z,3.38
2023-03-19T03:33:27.224Z,4.40
2023-03-19T03:35:54.334Z,4.07
2023-03-19T03:38:21.967Z,4.68
2023-03-19T03:40:52.829Z,4.88
2023-03-19T03:43:21.093Z,7.20
2023-03-19T03:45:48.896Z,4.28
2023-03-19T03:48:16.315Z,3.33
2023-03-19T03:50:43.485Z,5.78
2023-03-19T03:53:11.982Z,4.25
2023-03-19T03:55:39.440Z,4.63
2023-03-19T03:58:06.727Z,4.50
2023-03-19T04:00:34.160Z,3.72
2023-03-19T04:03:01.599Z,6.28
2023-03-19T04:05:28.629Z,5.07
2023-03-19T04:07:56.238Z,4.47
2023-03-19T04:10:24.195Z,6.10
2023-03-19T04:12:51.267Z,4.07
2023-03-19T04:15:20.167Z,6.00
2023-03-19T04:17:47.245Z,3.42
2023-03-19T04:20:16.248Z,5.53
2023-03-19T04:22:43.291Z,4.38
2023-03-19T04:25:10.566Z,4.45
2023-03-19T04:27:37.631Z,3.58
2023-03-19T04:30:05.090Z,4.15
2023-03-19T04:32:33.458Z,4.97
2023-03-19T04:35:00.734Z,3.70
2023-03-19T04:37:27.821Z,3.90
2023-03-19T04:39:55.169Z,4.32
2023-03-19T04:42:22.490Z,4.50
2023-03-19T04:44:49.533Z,5.28
2023-03-19T04:47:16.568Z,3.72
2023-03-19T04:49:43.646Z,3.75
2023-03-19T04:52:10.754Z,4.88
2023-03-19T04:54:38.039Z,8.02
2023-03-19T04:57:05.230Z,3.88
2023-03-19T04:59:32.557Z,3.45
2023-03-19T05:01:59.712Z,6.38
2023-03-19T05:04:27.295Z,5.40
2023-03-19T05:06:54.381Z,5.30
2023-03-19T05:09:21.497Z,6.15
2023-03-19T05:11:48.628Z,5.05
2023-03-19T05:14:15.820Z,5.38
2023-03-19T05:16:42.870Z,6.53
2023-03-19T05:19:10.386Z,4.80
2023-03-19T05:21:38.078Z,5.45
2023-03-19T05:24:05.338Z,6.25
2023-03-19T05:26:32.591Z,6.85
2023-03-19T05:28:59.674Z,5.90
2023-03-19T05:31:26.721Z,8.07
2023-03-19T05:33:53.839Z,5.00
2023-03-19T05:36:20.943Z,7.65
2023-03-19T05:38:47.976Z,7.00
2023-03-19T05:41:15.098Z,7.35
2023-03-19T05:43:42.522Z,7.60
2023-03-19T05:46:09.584Z,9.10
2023-03-19T05:48:36.700Z,10.10
2023-03-19T05:51:03.964Z,10.93
2023-03-19T05:53:31.128Z,10.82
2023-03-19T05:55:58.179Z,10.20
2023-03-19T05:58:25.882Z,10.38
2023-03-19T06:00:56.380Z,10.13
2023-03-19T06:03:23.637Z,9.98
2023-03-19T06:05:51.340Z,10.80
2023-03-19T06:08:18.884Z,9.85
2023-03-19T06:10:46.580Z,11.15
2023-03-19T06:13:13.675Z,9.80
2023-03-19T06:15:40.980Z,9.07
2023-03-19T06:18:08.614Z,9.25
2023-03-19T06:20:36.060Z,11.02
2023-03-19T06:23:03.306Z,8.35
2023-03-19T06:25:30.373Z,10.07
2023-03-19T06:27:57.458Z,13.15
2023-03-19T06:30:24.615Z,9.38
2023-03-19T06:32:51.936Z,9.25
2023-03-19T06:35:19.133Z,12.90
2023-03-19T06:37:46.382Z,10.27
2023-03-19T06:40:13.814Z,11.38
2023-03-19T06:42:41.188Z,9.55
2023-03-19T06:45:08.564Z,8.73
2023-03-19T06:47:35.620Z,9.25
2023-03-19T06:50:03.377Z,12.13
2023-03-19T06:52:30.484Z,10.23
2023-03-19T06:54:57.549Z,11.70
2023-03-19T06:57:24.658Z,11.25
2023-03-19T06:59:51.740Z,11.57
2023-03-19T07:02:18.760Z,12.65
2023-03-19T07:04:45.787Z,18.05
2023-03-19T07:07:12.803Z,13.68
2023-03-19T07:09:39.863Z,14.68
2023-03-19T07:12:07.076Z,13.48
2023-03-19T07:14:34.079Z,13.55
2023-03-19T07:17:01.343Z,13.45
2023-03-19T07:19:28.386Z,15.27
2023-03-19T07:21:55.459Z,17.67
2023-03-19T07:24:22.557Z,14.77
2023-03-19T07:26:49.584Z,17.58
2023-03-19T07:29:17.693Z,18.60
2023-03-19T07:31:44.758Z,23.90
2023-03-19T07:34:11.846Z,21.08
2023-03-19T07:36:38.934Z,19.05
2023-03-19T07:39:06.082Z,9.88
2023-03-19T07:41:33.152Z,8.30
2023-03-19T07:44:00.212Z,7.70
2023-03-19T07:46:28.263Z,6.65
2023-03-19T07:48:55.302Z,8.95
2023-03-19T07:51:22.409Z,8.38
2023-03-19T07:53:49.551Z,7.15
2023-03-19T07:56:16.657Z,8.15
2023-03-19T07:58:43.701Z,6.50
2023-03-19T08:01:10.850Z,6.78
2023-03-19T08:03:38.491Z,7.40
2023-03-19T08:06:05.635Z,6.88
2023-03-19T08:08:34.840Z,7.75
2023-03-19T08:11:02.053Z,8.40
2023-03-19T08:13:29.240Z,7.05
2023-03-19T08:15:56.455Z,5.97
2023-03-19T08:18:24.019Z,5.53
2023-03-19T08:20:51.160Z,7.22
2023-03-19T08:23:18.223Z,7.70
2023-03-19T08:25:45.409Z,6.80
2023-03-19T08:28:12.563Z,6.55
2023-03-19T08:30:40.012Z,7.18
2023-03-19T08:33:07.223Z,8.52
2023-03-19T08:35:34.370Z,7.30
2023-03-19T08:38:01.408Z,6.53
2023-03-19T08:40:28.586Z,8.02
2023-03-19T08:42:56.025Z,8.52
2023-03-19T08:45:23.707Z,7.65
2023-03-19T08:47:50.857Z,8.82
2023-03-19T08:50:18.085Z,9.02
2023-03-19T08:52:45.456Z,7.63
2023-03-19T08:55:12.526Z,8.82
2023-03-19T08:57:39.629Z,7.18
2023-03-19T09:00:07.711Z,7.03
2023-03-19T09:02:34.892Z,6.85
2023-03-19T09:05:01.989Z,7.50
2023-03-19T09:07:29.144Z,7.30
2023-03-19T09:09:56.162Z,8.60
2023-03-19T09:12:23.261Z,8.35
2023-03-19T09:14:50.312Z,7.38
2023-03-19T09:17:18.240Z,7.22
2023-03-19T09:19:45.453Z,8.93
2023-03-19T09:22:12.478Z,5.78
2023-03-19T09:24:40.788Z,7.43
2023-03-19T09:27:08.051Z,7.43
2023-03-19T09:29:35.291Z,6.22
2023-03-19T09:32:02.456Z,8.63
2023-03-19T09:34:29.582Z,6.25
2023-03-19T09:36:56.681Z,7.15
2023-03-19T09:39:23.736Z,7.30
2023-03-19T09:42:09.854Z,9.23
2023-03-19T09:44:38.109Z,7.45
2023-03-19T09:47:41.852Z,8.88
2023-03-19T09:50:13.936Z,8.30
2023-03-19T09:52:51.706Z,8.65
2023-03-19T09:55:27.859Z,10.40
2023-03-19T09:57:56.758Z,11.20
2023-03-19T10:00:26.103Z,10.52
2023-03-19T10:03:03.895Z,8.35
2023-03-19T10:05:49.884Z,10.68
2023-03-19T10:08:17.141Z,7.70
2023-03-19T10:10:50.041Z,9.05
2023-03-19T10:13:19.928Z,9.60
2023-03-19T10:15:47.667Z,7.20
2023-03-19T10:18:19.201Z,9.85
2023-03-19T10:20:55.437Z,9.15
2023-03-19T10:23:41.269Z,8.40
2023-03-19T10:26:13.013Z,7.38
2023-03-19T10:28:43.545Z,8.27
2023-03-19T10:31:19.041Z,6.35
2023-03-19T10:33:51.865Z,8.38
2023-03-19T10:36:19.976Z,8.68
2023-03-19T10:38:47.424Z,8.57
2023-03-19T10:41:17.496Z,8.48
2023-03-19T10:43:47.921Z,8.15
2023-03-19T10:46:15.693Z,7.95
2023-03-19T10:48:47.060Z,9.05
2023-03-19T10:51:16.128Z,7.05
2023-03-19T10:53:43.452Z,9.68
2023-03-19T10:56:19.806Z,7.40
2023-03-19T10:59:03.109Z,8.50
2023-03-19T11:01:38.748Z,7.85
2023-03-19T11:04:18.157Z,6.32
2023-03-19T11:06:49.313Z,9.55
2023-03-19T11:09:20.202Z,8.07
2023-03-19T11:11:53.314Z,7.47
2023-03-19T11:14:21.886Z,6.75
2023-03-19T11:16:49.998Z,8.05
2023-03-19T11:19:21.134Z,7.13
2023-03-19T11:22:00.402Z,7.90
2023-03-19T11:24:27.738Z,8.48
2023-03-19T11:26:56.031Z,8.25
2023-03-19T11:29:23.764Z,9.25
2023-03-19T11:32:20.831Z,8.20
2023-03-19T11:35:02.260Z,7.18
2023-03-19T11:37:48.532Z,7.43
2023-03-19T11:40:19.637Z,7.10
2023-03-19T11:43:00.461Z,8.52
2023-03-19T11:45:38.516Z,7.30
2023-03-19T11:48:20.932Z,7.80
2023-03-19T11:50:48.427Z,8.30
2023-03-19T11:53:15.486Z,8.05
2023-03-19T11:55:45.336Z,9.68
2023-03-19T11:58:23.757Z,8.95
2023-03-19T12:00:52.331Z,7.43
2023-03-19T12:03:44.779Z,8.40
2023-03-19T12:06:18.554Z,8.35
2023-03-19T12:09:00.279Z,8.82
2023-03-19T12:11:42.396Z,9.23
2023-03-19T12:14:18.422Z,10.48
2023-03-19T12:16:52.631Z,10.02
2023-03-19T12:19:25.692Z,9.50
2023-03-19T12:22:04.537Z,9.45
2023-03-19T12:24:46.619Z,10.48
2023-03-19T12:27:14.376Z,13.25
2023-03-19T12:29:57.032Z,10.35
2023-03-19T12:32:24.039Z,9.63
2023-03-19T12:34:51.234Z,11.77
2023-03-19T12:37:27.528Z,8.85
2023-03-19T12:39:59.941Z,11.95
2023-03-19T12:42:29.665Z,13.18
2023-03-19T12:44:59.154Z,9.30
2023-03-19T12:47:30.867Z,9.50
2023-03-19T12:50:00.732Z,11.05
2023-03-19T12:52:44.100Z,11.18
2023-03-19T12:55:17.590Z,9.70
2023-03-19T12:57:49.925Z,10.88
2023-03-19T13:00:26.432Z,9.25
2023-03-19T13:03:11.948Z,12.80
2023-03-19T13:05:39.063Z,10.77
2023-03-19T13:08:06.142Z,11.43
2023-03-19T13:10:33.558Z,10.48
2023-03-19T13:13:02.566Z,11.05
2023-03-19T13:15:42.310Z,11.52
2023-03-19T13:18:17.948Z,12.05
2023-03-19T13:21:03.884Z,9.10
2023-03-19T13:23:32.445Z,13.63
2023-03-19T13:26:00.177Z,12.13
2023-03-19T13:28:35.315Z,11.45
2023-03-19T13:31:06.956Z,13.77
2023-03-19T13:33:35.154Z,12.90
2023-03-19T13:36:05.183Z,10.90
2023-03-19T13:38:35.382Z,12.10
2023-03-19T13:41:03.635Z,14.85
2023-03-19T13:43:30.681Z,12.82
2023-03-19T13:46:06.641Z,13.93
2023-03-19T13:48:33.653Z,15.00
2023-03-19T13:51:05.813Z,17.85
2023-03-19T13:53:33.628Z,13.70
2023-03-19T13:56:01.846Z,12.13
2023-03-19T13:58:48.077Z,11.75
2023-03-19T14:01:41.459Z,14.80
2023-03-19T14:04:21.386Z,14.20
2023-03-19T14:06:49.932Z,12.00
2023-03-19T14:09:32.602Z,12.07
2023-03-19T14:12:18.644Z,15.15
2023-03-19T14:14:48.019Z,13.98
2023-03-19T14:17:23.332Z,14.70
2023-03-19T14:19:52.307Z,14.13
2023-03-19T14:22:33.309Z,14.73
2023-03-19T14:25:20.227Z,16.58
2023-03-19T14:27:51.645Z,15.77
2023-03-19T14:30:30.992Z,15.60
2023-03-19T14:33:01.123Z,18.95
2023-03-19T14:35:29.192Z,18.77
2023-03-19T14:37:56.561Z,16.92
2023-03-19T14:40:28.051Z,15.18
2023-03-19T14:43:16.628Z,17.85
2023-03-19T14:45:47.164Z,13.88
2023-03-19T14:48:17.332Z,16.38
2023-03-19T14:50:50.458Z,14.43
2023-03-19T14:53:35.888Z,15.48
2023-03-19T14:56:16.445Z,18.63
2023-03-19T14:58:50.559Z,15.50
2023-03-19T15:01:18.667Z,19.95
2023-03-19T15:03:46.071Z,16.67
2023-03-19T15:06:14.768Z,17.73
2023-03-19T15:08:42.628Z,19.77
2023-03-19T15:11:09.838Z,15.18
2023-03-19T15:13:37.087Z,18.30
2023-03-19T15:16:10.388Z,16.05
2023-03-19T15:18:37.620Z,16.20
2023-03-19T15:21:05.907Z,17.30
2023-03-19T15:23:33.354Z,17.48
2023-03-19T15:26:01.921Z,17.17
2023-03-19T15:28:30.240Z,14.93
2023-03-19T15:31:03.476Z,16.92
2023-03-19T15:33:41.488Z,18.98
2023-03-19T15:36:16.463Z,19.25
2023-03-19T15:38:52.220Z,16.95
2023-03-19T15:41:19.791Z,15.00
2023-03-19T15:43:47.085Z,18.80
2023-03-19T15:46:16.200Z,18.08
2023-03-19T15:48:45.325Z,23.77
2023-03-19T15:51:13.609Z,17.17
2023-03-19T15:53:41.005Z,20.13
2023-03-19T15:56:08.491Z,17.55
2023-03-19T15:58:40.711Z,21.98
2023-03-19T16:01:09.830Z,28.17
2023-03-19T16:03:38.795Z,21.20
2023-03-19T16:06:06.914Z,26.92
2023-03-19T16:08:34.109Z,21.75
2023-03-19T16:11:20.250Z,20.42
2023-03-19T16:13:55.287Z,23.98
2023-03-19T16:16:23.150Z,23.83
2023-03-19T16:18:54.450Z,20.80
2023-03-19T16:21:23.696Z,23.25
2023-03-19T16:23:52.793Z,23.77
2023-03-19T16:26:24.214Z,23.48
2023-03-19T16:29:14.322Z,22.30
2023-03-19T16:31:43.210Z,18.90
2023-03-19T16:34:36.598Z,26.30
2023-03-19T16:37:03.804Z,22.02
2023-03-19T16:39:33.179Z,25.73
2023-03-19T16:42:09.422Z,22.10
2023-03-19T16:44:40.212Z,28.75
2023-03-19T16:47:14.347Z,23.35
2023-03-19T16:49:41.487Z,21.27
2023-03-19T16:52:14.226Z,22.05
2023-03-19T16:54:41.343Z,22.25
2023-03-19T16:57:10.993Z,25.52
2023-03-19T16:59:38.158Z,25.98
2023-03-19T17:02:11.110Z,16.75
2023-03-19T17:04:38.230Z,20.00
2023-03-19T17:07:05.432Z,20.70
2023-03-19T17:09:32.479Z,23.10
2023-03-19T17:12:02.017Z,24.70
2023-03-19T17:14:29.572Z,22.25
2023-03-19T17:16:56.893Z,21.95
2023-03-19T17:19:25.714Z,26.13
2023-03-19T17:21:55.970Z,26.25
2023-03-19T17:24:33.047Z,23.55
2023-03-19T17:27:01.683Z,21.90
2023-03-19T17:29:30.269Z,20.45
2023-03-19T17:31:58.395Z,22.83
2023-03-19T17:34:26.954Z,20.85
2023-03-19T17:36:58.160Z,24.92
2023-03-19T17:39:25.612Z,20.92
2023-03-19T17:41:53.952Z,25.05
2023-03-19T17:44:21.217Z,26.42
2023-03-19T17:46:49.928Z,24.77
2023-03-19T17:49:21.675Z,27.63
2023-03-19T17:51:48.819Z,26.77
2023-03-19T17:54:15.926Z,26.13
2023-03-19T17:56:43.496Z,26.52
2023-03-19T17:59:11.161Z,26.80
2023-03-19T18:01:38.815Z,27.25
2023-03-19T18:04:06.040Z,24.77
2023-03-19T18:06:34.767Z,31.20
2023-03-19T18:09:01.981Z,26.75
2023-03-19T18:11:29.103Z,28.50
2023-03-19T18:13:56.255Z,23.20
2023-03-19T18:16:31.067Z,32.30
2023-03-19T18:19:02.924Z,45.30
2023-03-19T18:21:30.444Z,32.25
2023-03-19T18:24:01.258Z,47.90
2023-03-19T18:26:28.307Z,28.13
2023-03-19T18:28:55.446Z,30.77
2023-03-19T18:31:24.022Z,28.73
2023-03-19T18:33:54.411Z,27.70
2023-03-19T18:36:24.618Z,31.77
2023-03-19T18:38:52.439Z,27.63
2023-03-19T18:41:20.399Z,26.98
2023-03-19T18:43:47.558Z,24.13
2023-03-19T18:46:20.920Z,27.13
2023-03-19T18:48:48.108Z,21.50
2023-03-19T18:51:15.572Z,26.40
2023-03-19T18:53:42.606Z,28.50
2023-03-19T18:56:27.172Z,30.10
2023-03-19T18:58:55.373Z,22.50
2023-03-19T19:01:22.573Z,23.38
2023-03-19T19:03:50.291Z,23.58
2023-03-19T19:06:21.771Z,25.95
2023-03-19T19:08:49.331Z,20.17
2023-03-19T19:11:17.358Z,24.13
2023-03-19T19:13:55.653Z,25.10
2023-03-19T19:16:29.587Z,20.67
2023-03-19T19:18:56.639Z,21.73
2023-03-19T19:21:23.808Z,18.52
2023-03-19T19:23:51.101Z,14.70
2023-03-19T19:26:28.569Z,21.23
2023-03-19T19:28:57.552Z,17.23
2023-03-19T19:31:26.215Z,30.00
2023-03-19T19:33:53.566Z,29.30
2023-03-19T19:36:21.564Z,40.00
2023-03-19T19:38:48.657Z,29.27
2023-03-19T19:41:16.923Z,31.05
2023-03-19T19:43:44.689Z,14.07
2023-03-19T19:46:13.421Z,15.15
2023-03-19T19:48:40.872Z,12.68
2023-03-19T19:51:10.957Z,12.27
2023-03-19T19:53:38.027Z,11.43
2023-03-19T19:56:14.687Z,14.98
2023-03-19T19:58:41.814Z,13.90
2023-03-19T20:01:15.015Z,12.07
2023-03-19T20:03:42.187Z,12.43
2023-03-19T20:06:09.525Z,9.82
2023-03-19T20:08:36.573Z,10.27
2023-03-19T20:11:04.051Z,10.48
2023-03-19T20:13:37.705Z,13.38
2023-03-19T20:16:04.887Z,11.48
2023-03-19T20:18:35.182Z,8.80
2023-03-19T20:21:04.085Z,12.95
2023-03-19T20:23:31.432Z,11.38
2023-03-19T20:25:58.623Z,12.40
2023-03-19T20:28:35.417Z,10.30
2023-03-19T20:31:03.731Z,8.48
2023-03-19T20:33:31.467Z,11.07
2023-03-19T20:35:59.111Z,11.55
2023-03-19T20:38:27.338Z,18.55
2023-03-19T20:40:55.782Z,13.95
2023-03-19T20:43:28.111Z,12.70
2023-03-19T20:45:56.907Z,25.63
2023-03-19T20:48:24.422Z,26.95
2023-03-19T20:50:52.263Z,15.63
2023-03-19T20:53:19.428Z,14.65
2023-03-19T20:55:47.819Z,13.13
2023-03-19T20:58:36.771Z,11.02
2023-03-19T21:01:04.313Z,10.68
2023-03-19T21:03:32.488Z,9.35
2023-03-19T21:06:06.871Z,8.60
2023-03-19T21:08:35.589Z,10.80
2023-03-19T21:11:02.933Z,13.27
2023-03-19T21:13:31.831Z,12.18
2023-03-19T21:15:59.586Z,10.32
2023-03-19T21:18:26.786Z,9.63
2023-03-19T21:20:55.276Z,10.88
2023-03-19T21:23:22.277Z,10.82
2023-03-19T21:25:49.580Z,7.95
2023-03-19T21:28:30.434Z,9.27
2023-03-19T21:30:58.289Z,7.07
2023-03-19T21:33:27.052Z,8.77
2023-03-19T21:35:54.901Z,7.60
2023-03-19T21:38:22.639Z,10.23
2023-03-19T21:40:50.916Z,10.73
2023-03-19T21:43:20.911Z,11.32
2023-03-19T21:45:49.447Z,10.25
2023-03-19T21:48:16.644Z,21.75
2023-03-19T21:50:46.227Z,13.18
2023-03-19T21:53:13.432Z,15.48
2023-03-19T21:55:41.426Z,16.70
2023-03-19T21:58:11.732Z,11.18
2023-03-19T22:00:38.998Z,9.45
2023-03-19T22:03:06.784Z,10.75
2023-03-19T22:05:36.673Z,12.10
2023-03-19T22:08:04.045Z,12.68
2023-03-19T22:10:31.239Z,12.20
2023-03-19T22:12:58.374Z,9.52
2023-03-19T22:15:31.227Z,12.75
2023-03-19T22:17:58.319Z,11.32
2023-03-19T22:20:26.405Z,11.40
2023-03-19T22:22:53.729Z,10.77
2023-03-19T22:25:22.234Z,9.27
2023-03-19T22:27:50.219Z,12.27
2023-03-19T22:30:27.303Z,12.13
2023-03-19T22:32:59.219Z,10.75
2023-03-19T22:37:53.556Z,9.23
2023-03-19T22:40:20.874Z,7.80
2023-03-19T22:42:49.054Z,8.70
2023-03-19T22:45:21.545Z,9.27
2023-03-19T22:47:48.616Z,10.68
2023-03-19T22:50:24.198Z,9.73
2023-03-19T22:52:51.475Z,9.88
2023-03-19T22:55:18.731Z,9.05
2023-03-19T22:57:46.131Z,9.75
2023-03-19T23:00:15.195Z,8.82
2023-03-19T23:02:42.611Z,12.00
2023-03-19T23:05:21.980Z,11.30
2023-03-19T23:07:49.026Z,12.25
2023-03-19T23:10:18.016Z,12.48
2023-03-19T23:12:45.289Z,11.13
2023-03-19T23:15:12.338Z,12.68
2023-03-19T23:17:39.432Z,12.18
2023-03-19T23:20:13.781Z,14.20
2023-03-19T23:22:41.318Z,11.23
2023-03-19T23:25:15.712Z,13.80
2023-03-19T23:27:43.107Z,14.40
2023-03-19T23:30:28.236Z,12.80
2023-03-19T23:32:56.129Z,12.40
2023-03-19T23:35:24.667Z,11.38
2023-03-19T23:37:54.625Z,13.18
2023-03-19T23:40:22.552Z,12.60
2023-03-19T23:42:51.276Z,14.45
2023-03-19T23:45:29.511Z,15.00
2023-03-19T23:47:58.043Z,15.38
2023-03-19T23:50:25.274Z,14.93
2023-03-19T23:52:52.576Z,16.73
2023-03-19T23:55:19.743Z,13.75
2023-03-19T23:57:47.418Z,12.45
